sensor_id;sensor_type;location;lat;lon;timestamp;P1;durP1;ratioP1;P2;durP2;ratioP2
67768;SDS011;54569;52.018;5.584;2024-03-07T00:01:03;37.63;;;22.13;;
67768;SDS011;54569;52.018;5.584;2024-03-07T00:03:29;36.45;;;21.77;;
67768;SDS011;54569;52.018;5.584;2024-03-07T00:05:54;42.55;;;23.10;;
67768;SDS011;54569;52.018;5.584;2024-03-07T00:08:20;39.97;;;23.05;;
67768;SDS011;54569;52.018;5.584;2024-03-07T00:10:46;37.40;;;22.15;;
67768;SDS011;54569;52.018;5.584;2024-03-07T00:13:12;40.78;;;23.42;;
67768;SDS011;54569;52.018;5.584;2024-03-07T00:15:38;38.63;;;22.75;;
67768;SDS011;54569;52.018;5.584;2024-03-07T00:18:05;40.58;;;23.08;;
67768;SDS011;54569;52.018;5.584;2024-03-07T00:20:31;41.13;;;23.90;;
67768;SDS011;54569;52.018;5.584;2024-03-07T00:22:57;43.05;;;24.27;;
67768;SDS011;54569;52.018;5.584;2024-03-07T00:25:22;40.90;;;23.98;;
67768;SDS011;54569;52.018;5.584;2024-03-07T00:27:48;38.13;;;23.88;;
67768;SDS011;54569;52.018;5.584;2024-03-07T00:30:18;38.08;;;21.58;;
67768;SDS011;54569;52.018;5.584;2024-03-07T00:32:45;39.28;;;23.70;;
67768;SDS011;54569;52.018;5.584;2024-03-07T00:35:12;39.15;;;22.95;;
67768;SDS011;54569;52.018;5.584;2024-03-07T00:37:38;36.85;;;22.75;;
67768;SDS011;54569;52.018;5.584;2024-03-07T00:40:04;38.58;;;22.92;;
67768;SDS011;54569;52.018;5.584;2024-03-07T00:42:31;43.15;;;23.25;;
67768;SDS011;54569;52.018;5.584;2024-03-07T00:44:57;37.33;;;22.15;;
67768;SDS011;54569;52.018;5.584;2024-03-07T00:47:23;44.63;;;24.55;;
67768;SDS011;54569;52.018;5.584;2024-03-07T00:49:49;41.70;;;24.15;;
67768;SDS011;54569;52.018;5.584;2024-03-07T00:52:15;38.85;;;22.88;;
67768;SDS011;54569;52.018;5.584;2024-03-07T00:54:41;39.95;;;23.98;;
67768;SDS011;54569;52.018;5.584;2024-03-07T00:57:07;43.20;;;24.77;;
67768;SDS011;54569;52.018;5.584;2024-03-07T00:59:33;38.35;;;23.48;;
67768;SDS011;54569;52.018;5.584;2024-03-07T01:02:00;42.38;;;23.08;;
67768;SDS011;54569;52.018;5.584;2024-03-07T01:04:26;41.10;;;23.65;;
67768;SDS011;54569;52.018;5.584;2024-03-07T01:06:59;42.92;;;24.67;;
67768;SDS011;54569;52.018;5.584;2024-03-07T01:09:25;41.50;;;23.80;;
67768;SDS011;54569;52.018;5.584;2024-03-07T01:11:53;43.33;;;24.25;;
67768;SDS011;54569;52.018;5.584;2024-03-07T01:14:20;40.70;;;24.67;;
67768;SDS011;54569;52.018;5.584;2024-03-07T01:16:46;43.17;;;24.33;;
67768;SDS011;54569;52.018;5.584;2024-03-07T01:19:12;39.70;;;23.63;;
67768;SDS011;54569;52.018;5.584;2024-03-07T01:21:38;36.53;;;22.27;;
67768;SDS011;54569;52.018;5.584;2024-03-07T01:24:04;40.42;;;23.45;;
67768;SDS011;54569;52.018;5.584;2024-03-07T01:26:30;38.13;;;22.55;;
67768;SDS011;54569;52.018;5.584;2024-03-07T01:28:58;39.72;;;23.30;;
67768;SDS011;54569;52.018;5.584;2024-03-07T01:31:24;41.55;;;23.98;;
67768;SDS011;54569;52.018;5.584;2024-03-07T01:33:50;43.53;;;23.92;;
67768;SDS011;54569;52.018;5.584;2024-03-07T01:36:16;40.83;;;23.85;;
67768;SDS011;54569;52.018;5.584;2024-03-07T01:38:42;41.58;;;23.92;;
67768;SDS011;54569;52.018;5.584;2024-03-07T01:41:08;42.75;;;23.38;;
67768;SDS011;54569;52.018;5.584;2024-03-07T01:43:34;37.20;;;22.73;;
67768;SDS011;54569;52.018;5.584;2024-03-07T01:46:00;41.20;;;24.08;;
67768;SDS011;54569;52.018;5.584;2024-03-07T01:48:26;35.47;;;22.48;;
67768;SDS011;54569;52.018;5.584;2024-03-07T01:50:57;40.00;;;23.45;;
67768;SDS011;54569;52.018;5.584;2024-03-07T01:53:28;36.58;;;21.98;;
67768;SDS011;54569;52.018;5.584;2024-03-07T01:55:59;38.97;;;22.73;;
67768;SDS011;54569;52.018;5.584;2024-03-07T01:58:25;38.38;;;21.73;;
67768;SDS011;54569;52.018;5.584;2024-03-07T02:00:51;42.75;;;23.95;;
67768;SDS011;54569;52.018;5.584;2024-03-07T02:03:17;39.45;;;23.50;;
67768;SDS011;54569;52.018;5.584;2024-03-07T02:05:43;36.35;;;22.30;;
67768;SDS011;54569;52.018;5.584;2024-03-07T02:08:10;37.70;;;24.00;;
67768;SDS011;54569;52.018;5.584;2024-03-07T02:10:36;41.10;;;25.10;;
67768;SDS011;54569;52.018;5.584;2024-03-07T02:13:03;43.30;;;24.25;;
67768;SDS011;54569;52.018;5.584;2024-03-07T02:15:29;42.45;;;24.23;;
67768;SDS011;54569;52.018;5.584;2024-03-07T02:17:55;46.00;;;26.38;;
67768;SDS011;54569;52.018;5.584;2024-03-07T02:20:20;41.13;;;24.13;;
67768;SDS011;54569;52.018;5.584;2024-03-07T02:22:47;43.70;;;25.58;;
67768;SDS011;54569;52.018;5.584;2024-03-07T02:25:13;42.00;;;24.90;;
67768;SDS011;54569;52.018;5.584;2024-03-07T02:27:39;44.90;;;24.60;;
67768;SDS011;54569;52.018;5.584;2024-03-07T02:30:05;40.50;;;25.52;;
67768;SDS011;54569;52.018;5.584;2024-03-07T02:32:34;40.70;;;23.30;;
67768;SDS011;54569;52.018;5.584;2024-03-07T02:35:02;43.22;;;25.05;;
67768;SDS011;54569;52.018;5.584;2024-03-07T02:37:29;41.88;;;24.27;;
67768;SDS011;54569;52.018;5.584;2024-03-07T02:39:54;41.85;;;23.17;;
67768;SDS011;54569;52.018;5.584;2024-03-07T02:42:20;40.92;;;22.95;;
67768;SDS011;54569;52.018;5.584;2024-03-07T02:44:46;43.88;;;23.77;;
67768;SDS011;54569;52.018;5.584;2024-03-07T02:47:12;41.05;;;24.20;;
67768;SDS011;54569;52.018;5.584;2024-03-07T02:49:38;43.88;;;23.95;;
67768;SDS011;54569;52.018;5.584;2024-03-07T02:52:04;41.03;;;24.58;;
67768;SDS011;54569;52.018;5.584;2024-03-07T02:54:32;42.63;;;24.13;;
67768;SDS011;54569;52.018;5.584;2024-03-07T02:56:59;40.40;;;24.45;;
67768;SDS011;54569;52.018;5.584;2024-03-07T02:59:24;42.80;;;25.52;;
67768;SDS011;54569;52.018;5.584;2024-03-07T03:01:50;40.63;;;22.77;;
67768;SDS011;54569;52.018;5.584;2024-03-07T03:04:16;40.72;;;23.77;;
67768;SDS011;54569;52.018;5.584;2024-03-07T03:06:43;42.70;;;24.27;;
67768;SDS011;54569;52.018;5.584;2024-03-07T03:09:10;42.20;;;25.20;;
67768;SDS011;54569;52.018;5.584;2024-03-07T03:11:38;44.17;;;24.02;;
67768;SDS011;54569;52.018;5.584;2024-03-07T03:14:04;43.53;;;24.60;;
67768;SDS011;54569;52.018;5.584;2024-03-07T03:16:30;42.05;;;24.52;;
67768;SDS011;54569;52.018;5.584;2024-03-07T03:18:56;46.20;;;24.65;;
67768;SDS011;54569;52.018;5.584;2024-03-07T03:21:23;44.20;;;24.75;;
67768;SDS011;54569;52.018;5.584;2024-03-07T03:23:49;42.70;;;24.48;;
67768;SDS011;54569;52.018;5.584;2024-03-07T03:26:14;40.35;;;22.98;;
67768;SDS011;54569;52.018;5.584;2024-03-07T03:28:41;41.72;;;22.17;;
67768;SDS011;54569;52.018;5.584;2024-03-07T03:31:07;38.65;;;24.23;;
67768;SDS011;54569;52.018;5.584;2024-03-07T03:33:33;41.15;;;23.17;;
67768;SDS011;54569;52.018;5.584;2024-03-07T03:36:00;40.13;;;23.13;;
67768;SDS011;54569;52.018;5.584;2024-03-07T03:38:26;46.72;;;25.00;;
67768;SDS011;54569;52.018;5.584;2024-03-07T03:40:52;44.58;;;24.42;;
67768;SDS011;54569;52.018;5.584;2024-03-07T03:43:17;43.47;;;24.85;;
67768;SDS011;54569;52.018;5.584;2024-03-07T03:45:44;42.28;;;26.15;;
67768;SDS011;54569;52.018;5.584;2024-03-07T03:48:10;44.50;;;24.25;;
67768;SDS011;54569;52.018;5.584;2024-03-07T03:50:36;44.30;;;24.33;;
67768;SDS011;54569;52.018;5.584;2024-03-07T03:53:02;44.72;;;24.95;;
67768;SDS011;54569;52.018;5.584;2024-03-07T03:55:29;38.83;;;22.73;;
67768;SDS011;54569;52.018;5.584;2024-03-07T03:57:55;39.55;;;24.60;;
67768;SDS011;54569;52.018;5.584;2024-03-07T04:00:20;47.08;;;25.45;;
67768;SDS011;54569;52.018;5.584;2024-03-07T04:02:48;45.40;;;25.45;;
67768;SDS011;54569;52.018;5.584;2024-03-07T04:05:15;39.80;;;23.88;;
67768;SDS011;54569;52.018;5.584;2024-03-07T04:07:42;41.67;;;24.90;;
67768;SDS011;54569;52.018;5.584;2024-03-07T04:10:08;42.05;;;24.67;;
67768;SDS011;54569;52.018;5.584;2024-03-07T04:12:35;42.25;;;23.95;;
67768;SDS011;54569;52.018;5.584;2024-03-07T04:15:06;43.42;;;24.70;;
67768;SDS011;54569;52.018;5.584;2024-03-07T04:17:33;44.85;;;24.88;;
67768;SDS011;54569;52.018;5.584;2024-03-07T04:20:03;39.92;;;23.80;;
67768;SDS011;54569;52.018;5.584;2024-03-07T04:22:35;39.75;;;23.70;;
67768;SDS011;54569;52.018;5.584;2024-03-07T04:25:05;47.38;;;25.20;;
67768;SDS011;54569;52.018;5.584;2024-03-07T04:27:35;45.13;;;24.05;;
67768;SDS011;54569;52.018;5.584;2024-03-07T04:30:05;47.22;;;25.38;;
67768;SDS011;54569;52.018;5.584;2024-03-07T04:32:32;46.22;;;23.67;;
67768;SDS011;54569;52.018;5.584;2024-03-07T04:35:01;43.65;;;24.67;;
67768;SDS011;54569;52.018;5.584;2024-03-07T04:37:29;44.45;;;25.40;;
67768;SDS011;54569;52.018;5.584;2024-03-07T04:39:55;40.40;;;24.10;;
67768;SDS011;54569;52.018;5.584;2024-03-07T04:42:20;44.08;;;25.25;;
67768;SDS011;54569;52.018;5.584;2024-03-07T04:44:46;43.55;;;24.27;;
67768;SDS011;54569;52.018;5.584;2024-03-07T04:47:12;41.13;;;24.15;;
67768;SDS011;54569;52.018;5.584;2024-03-07T04:49:38;37.70;;;23.00;;
67768;SDS011;54569;52.018;5.584;2024-03-07T04:52:05;44.65;;;24.90;;
67768;SDS011;54569;52.018;5.584;2024-03-07T04:54:32;41.53;;;24.25;;
67768;SDS011;54569;52.018;5.584;2024-03-07T04:56:59;44.60;;;25.17;;
67768;SDS011;54569;52.018;5.584;2024-03-07T04:59:25;42.83;;;24.48;;
67768;SDS011;54569;52.018;5.584;2024-03-07T05:01:51;38.85;;;23.55;;
67768;SDS011;54569;52.018;5.584;2024-03-07T05:04:17;42.35;;;23.98;;
67768;SDS011;54569;52.018;5.584;2024-03-07T05:06:43;46.58;;;24.55;;
67768;SDS011;54569;52.018;5.584;2024-03-07T05:09:12;48.38;;;25.30;;
67768;SDS011;54569;52.018;5.584;2024-03-07T05:11:48;48.20;;;26.27;;
67768;SDS011;54569;52.018;5.584;2024-03-07T05:14:15;46.05;;;25.85;;
67768;SDS011;54569;52.018;5.584;2024-03-07T05:16:41;41.97;;;25.42;;
67768;SDS011;54569;52.018;5.584;2024-03-07T05:19:08;47.63;;;25.98;;
67768;SDS011;54569;52.018;5.584;2024-03-07T05:21:34;43.95;;;24.65;;
67768;SDS011;54569;52.018;5.584;2024-03-07T05:24:08;43.08;;;25.77;;
67768;SDS011;54569;52.018;5.584;2024-03-07T05:26:34;42.90;;;25.13;;
67768;SDS011;54569;52.018;5.584;2024-03-07T05:29:09;47.10;;;26.42;;
67768;SDS011;54569;52.018;5.584;2024-03-07T05:31:38;41.75;;;24.08;;
67768;SDS011;54569;52.018;5.584;2024-03-07T05:34:10;39.45;;;23.65;;
67768;SDS011;54569;52.018;5.584;2024-03-07T05:36:37;42.13;;;23.77;;
67768;SDS011;54569;52.018;5.584;2024-03-07T05:39:10;45.33;;;25.65;;
67768;SDS011;54569;52.018;5.584;2024-03-07T05:41:37;42.50;;;25.95;;
67768;SDS011;54569;52.018;5.584;2024-03-07T05:44:03;40.90;;;24.00;;
67768;SDS011;54569;52.018;5.584;2024-03-07T05:46:37;46.50;;;25.70;;
67768;SDS011;54569;52.018;5.584;2024-03-07T05:49:07;43.65;;;25.73;;
67768;SDS011;54569;52.018;5.584;2024-03-07T05:51:33;45.03;;;25.95;;
67768;SDS011;54569;52.018;5.584;2024-03-07T05:53:59;44.38;;;26.05;;
67768;SDS011;54569;52.018;5.584;2024-03-07T05:56:25;43.70;;;26.02;;
67768;SDS011;54569;52.018;5.584;2024-03-07T05:58:51;41.80;;;23.27;;
67768;SDS011;54569;52.018;5.584;2024-03-07T06:01:17;48.08;;;24.45;;
67768;SDS011;54569;52.018;5.584;2024-03-07T06:03:43;46.20;;;24.05;;
67768;SDS011;54569;52.018;5.584;2024-03-07T06:06:10;42.95;;;25.05;;
67768;SDS011;54569;52.018;5.584;2024-03-07T06:08:37;44.67;;;26.63;;
67768;SDS011;54569;52.018;5.584;2024-03-07T06:11:07;44.55;;;25.55;;
67768;SDS011;54569;52.018;5.584;2024-03-07T06:13:33;41.70;;;24.77;;
67768;SDS011;54569;52.018;5.584;2024-03-07T06:15:59;46.58;;;26.60;;
67768;SDS011;54569;52.018;5.584;2024-03-07T06:18:29;45.70;;;24.67;;
67768;SDS011;54569;52.018;5.584;2024-03-07T06:23:29;42.28;;;23.63;;
67768;SDS011;54569;52.018;5.584;2024-03-07T06:25:55;43.05;;;24.35;;
67768;SDS011;54569;52.018;5.584;2024-03-07T06:28:23;44.55;;;23.90;;
67768;SDS011;54569;52.018;5.584;2024-03-07T06:30:49;38.63;;;24.23;;
67768;SDS011;54569;52.018;5.584;2024-03-07T06:33:15;42.40;;;24.80;;
67768;SDS011;54569;52.018;5.584;2024-03-07T06:35:45;41.47;;;24.35;;
67768;SDS011;54569;52.018;5.584;2024-03-07T06:38:11;42.90;;;24.40;;
67768;SDS011;54569;52.018;5.584;2024-03-07T06:40:37;43.00;;;25.33;;
67768;SDS011;54569;52.018;5.584;2024-03-07T06:43:10;41.42;;;24.75;;
67768;SDS011;54569;52.018;5.584;2024-03-07T06:45:36;40.92;;;22.25;;
67768;SDS011;54569;52.018;5.584;2024-03-07T06:48:03;35.22;;;22.02;;
67768;SDS011;54569;52.018;5.584;2024-03-07T06:50:33;38.72;;;22.90;;
67768;SDS011;54569;52.018;5.584;2024-03-07T06:53:00;37.22;;;22.00;;
67768;SDS011;54569;52.018;5.584;2024-03-07T06:55:26;39.50;;;24.23;;
67768;SDS011;54569;52.018;5.584;2024-03-07T06:57:53;38.67;;;23.52;;
67768;SDS011;54569;52.018;5.584;2024-03-07T07:00:19;40.90;;;22.98;;
67768;SDS011;54569;52.018;5.584;2024-03-07T07:02:46;39.28;;;24.15;;
67768;SDS011;54569;52.018;5.584;2024-03-07T07:05:13;39.67;;;22.05;;
67768;SDS011;54569;52.018;5.584;2024-03-07T07:07:49;41.88;;;24.35;;
67768;SDS011;54569;52.018;5.584;2024-03-07T07:10:18;38.83;;;23.25;;
67768;SDS011;54569;52.018;5.584;2024-03-07T07:12:44;38.22;;;22.73;;
67768;SDS011;54569;52.018;5.584;2024-03-07T07:15:11;33.85;;;22.25;;
67768;SDS011;54569;52.018;5.584;2024-03-07T07:17:38;32.15;;;19.70;;
67768;SDS011;54569;52.018;5.584;2024-03-07T07:20:05;30.90;;;19.80;;
67768;SDS011;54569;52.018;5.584;2024-03-07T07:22:36;35.97;;;19.92;;
67768;SDS011;54569;52.018;5.584;2024-03-07T07:25:03;31.48;;;20.58;;
67768;SDS011;54569;52.018;5.584;2024-03-07T07:27:30;28.50;;;18.42;;
67768;SDS011;54569;52.018;5.584;2024-03-07T07:29:59;26.80;;;18.77;;
67768;SDS011;54569;52.018;5.584;2024-03-07T07:32:25;28.63;;;19.55;;
67768;SDS011;54569;52.018;5.584;2024-03-07T07:34:53;27.17;;;19.55;;
67768;SDS011;54569;52.018;5.584;2024-03-07T07:37:19;22.77;;;17.95;;
67768;SDS011;54569;52.018;5.584;2024-03-07T07:39:45;27.70;;;18.70;;
67768;SDS011;54569;52.018;5.584;2024-03-07T07:42:11;24.10;;;17.45;;
67768;SDS011;54569;52.018;5.584;2024-03-07T07:44:37;25.48;;;17.33;;
67768;SDS011;54569;52.018;5.584;2024-03-07T07:47:03;25.40;;;18.77;;
67768;SDS011;54569;52.018;5.584;2024-03-07T07:49:31;22.42;;;17.75;;
67768;SDS011;54569;52.018;5.584;2024-03-07T07:51:56;21.73;;;17.33;;
67768;SDS011;54569;52.018;5.584;2024-03-07T07:54:22;24.30;;;18.33;;
67768;SDS011;54569;52.018;5.584;2024-03-07T07:56:49;22.05;;;16.98;;
67768;SDS011;54569;52.018;5.584;2024-03-07T07:59:16;23.33;;;17.90;;
67768;SDS011;54569;52.018;5.584;2024-03-07T08:01:42;21.35;;;17.23;;
67768;SDS011;54569;52.018;5.584;2024-03-07T08:04:08;21.75;;;17.67;;
67768;SDS011;54569;52.018;5.584;2024-03-07T08:06:35;20.70;;;17.33;;
67768;SDS011;54569;52.018;5.584;2024-03-07T08:09:00;24.42;;;17.85;;
67768;SDS011;54569;52.018;5.584;2024-03-07T08:11:26;20.27;;;17.08;;
67768;SDS011;54569;52.018;5.584;2024-03-07T08:13:52;19.33;;;17.17;;
67768;SDS011;54569;52.018;5.584;2024-03-07T08:16:18;20.77;;;17.48;;
67768;SDS011;54569;52.018;5.584;2024-03-07T08:18:44;20.65;;;16.05;;
67768;SDS011;54569;52.018;5.584;2024-03-07T08:21:10;19.48;;;16.92;;
67768;SDS011;54569;52.018;5.584;2024-03-07T08:23:36;20.30;;;16.83;;
67768;SDS011;54569;52.018;5.584;2024-03-07T08:26:02;18.27;;;16.33;;
67768;SDS011;54569;52.018;5.584;2024-03-07T08:28:29;18.52;;;16.52;;
67768;SDS011;54569;52.018;5.584;2024-03-07T08:30:55;17.15;;;15.35;;
67768;SDS011;54569;52.018;5.584;2024-03-07T08:33:21;18.63;;;16.63;;
67768;SDS011;54569;52.018;5.584;2024-03-07T08:35:47;17.90;;;16.10;;
67768;SDS011;54569;52.018;5.584;2024-03-07T08:38:15;17.15;;;15.35;;
67768;SDS011;54569;52.018;5.584;2024-03-07T08:40:41;17.42;;;15.65;;
67768;SDS011;54569;52.018;5.584;2024-03-07T08:43:07;16.60;;;14.80;;
67768;SDS011;54569;52.018;5.584;2024-03-07T08:45:33;16.67;;;15.07;;
67768;SDS011;54569;52.018;5.584;2024-03-07T08:47:59;17.13;;;15.45;;
67768;SDS011;54569;52.018;5.584;2024-03-07T08:50:25;15.95;;;14.40;;
67768;SDS011;54569;52.018;5.584;2024-03-07T08:52:51;15.80;;;14.30;;
67768;SDS011;54569;52.018;5.584;2024-03-07T08:55:22;16.15;;;14.65;;
67768;SDS011;54569;52.018;5.584;2024-03-07T08:57:52;15.82;;;14.32;;
67768;SDS011;54569;52.018;5.584;2024-03-07T09:00:19;15.25;;;13.75;;
67768;SDS011;54569;52.018;5.584;2024-03-07T09:02:49;17.23;;;15.60;;
67768;SDS011;54569;52.018;5.584;2024-03-07T09:05:19;15.93;;;14.43;;
67768;SDS011;54569;52.018;5.584;2024-03-07T09:07:47;15.60;;;14.00;;
67768;SDS011;54569;52.018;5.584;2024-03-07T09:10:14;15.93;;;14.43;;
67768;SDS011;54569;52.018;5.584;2024-03-07T09:12:40;15.55;;;14.07;;
67768;SDS011;54569;52.018;5.584;2024-03-07T09:15:06;15.00;;;13.65;;
67768;SDS011;54569;52.018;5.584;2024-03-07T09:17:35;14.43;;;13.07;;
67768;SDS011;54569;52.018;5.584;2024-03-07T09:20:02;15.02;;;13.70;;
67768;SDS011;54569;52.018;5.584;2024-03-07T09:22:31;14.10;;;12.77;;
67768;SDS011;54569;52.018;5.584;2024-03-07T09:24:58;17.48;;;13.63;;
67768;SDS011;54569;52.018;5.584;2024-03-07T09:27:24;15.40;;;13.90;;
67768;SDS011;54569;52.018;5.584;2024-03-07T09:29:50;14.95;;;13.43;;
67768;SDS011;54569;52.018;5.584;2024-03-07T09:32:16;13.82;;;12.52;;
67768;SDS011;54569;52.018;5.584;2024-03-07T09:34:43;14.10;;;12.70;;
67768;SDS011;54569;52.018;5.584;2024-03-07T09:37:09;14.40;;;12.93;;
67768;SDS011;54569;52.018;5.584;2024-03-07T09:39:35;14.50;;;13.20;;
67768;SDS011;54569;52.018;5.584;2024-03-07T09:42:01;13.23;;;12.02;;
67768;SDS011;54569;52.018;5.584;2024-03-07T09:44:27;14.35;;;12.85;;
67768;SDS011;54569;52.018;5.584;2024-03-07T09:46:56;13.73;;;12.52;;
67768;SDS011;54569;52.018;5.584;2024-03-07T09:49:24;13.45;;;12.35;;
67768;SDS011;54569;52.018;5.584;2024-03-07T09:51:53;13.52;;;12.32;;
67768;SDS011;54569;52.018;5.584;2024-03-07T09:54:25;14.05;;;12.85;;
67768;SDS011;54569;52.018;5.584;2024-03-07T09:56:54;13.60;;;12.20;;
67768;SDS011;54569;52.018;5.584;2024-03-07T09:59:24;14.10;;;12.80;;
67768;SDS011;54569;52.018;5.584;2024-03-07T10:01:54;13.25;;;11.95;;
67768;SDS011;54569;52.018;5.584;2024-03-07T10:04:37;13.32;;;12.13;;
67768;SDS011;54569;52.018;5.584;2024-03-07T10:07:16;13.90;;;12.50;;
67768;SDS011;54569;52.018;5.584;2024-03-07T10:09:44;13.00;;;11.75;;
67768;SDS011;54569;52.018;5.584;2024-03-07T10:12:10;14.18;;;12.88;;
67768;SDS011;54569;52.018;5.584;2024-03-07T10:14:49;13.07;;;11.88;;
67768;SDS011;54569;52.018;5.584;2024-03-07T10:17:19;13.18;;;11.88;;
67768;SDS011;54569;52.018;5.584;2024-03-07T10:19:47;12.93;;;11.73;;
67768;SDS011;54569;52.018;5.584;2024-03-07T10:22:16;12.27;;;11.15;;
67768;SDS011;54569;52.018;5.584;2024-03-07T10:24:49;12.07;;;10.98;;
67768;SDS011;54569;52.018;5.584;2024-03-07T10:27:22;12.10;;;10.98;;
67768;SDS011;54569;52.018;5.584;2024-03-07T10:29:49;12.48;;;11.38;;
67768;SDS011;54569;52.018;5.584;2024-03-07T10:32:20;12.90;;;11.70;;
67768;SDS011;54569;52.018;5.584;2024-03-07T10:34:48;12.88;;;11.60;;
67768;SDS011;54569;52.018;5.584;2024-03-07T10:37:16;12.13;;;11.02;;
67768;SDS011;54569;52.018;5.584;2024-03-07T10:39:46;13.57;;;12.20;;
67768;SDS011;54569;52.018;5.584;2024-03-07T10:42:15;13.13;;;11.73;;
67768;SDS011;54569;52.018;5.584;2024-03-07T10:44:46;12.70;;;11.40;;
67768;SDS011;54569;52.018;5.584;2024-03-07T10:47:16;13.07;;;11.80;;
67768;SDS011;54569;52.018;5.584;2024-03-07T10:49:48;12.95;;;11.75;;
67768;SDS011;54569;52.018;5.584;2024-03-07T10:52:39;13.88;;;12.35;;
67768;SDS011;54569;52.018;5.584;2024-03-07T11:00:54;15.32;;;13.73;;
67768;SDS011;54569;52.018;5.584;2024-03-07T11:03:23;14.13;;;12.73;;
67768;SDS011;54569;52.018;5.584;2024-03-07T11:05:50;14.30;;;13.00;;
67768;SDS011;54569;52.018;5.584;2024-03-07T11:08:16;13.68;;;12.35;;
67768;SDS011;54569;52.018;5.584;2024-03-07T11:10:43;13.77;;;12.43;;
67768;SDS011;54569;52.018;5.584;2024-03-07T11:13:13;13.32;;;12.07;;
67768;SDS011;54569;52.018;5.584;2024-03-07T11:15:47;14.75;;;13.35;;
67768;SDS011;54569;52.018;5.584;2024-03-07T11:18:14;14.43;;;13.02;;
67768;SDS011;54569;52.018;5.584;2024-03-07T11:20:40;13.93;;;12.52;;
67768;SDS011;54569;52.018;5.584;2024-03-07T11:26:08;14.20;;;12.80;;
67768;SDS011;54569;52.018;5.584;2024-03-07T11:28:35;15.40;;;13.80;;
67768;SDS011;54569;52.018;5.584;2024-03-07T11:31:08;16.08;;;14.30;;
67768;SDS011;54569;52.018;5.584;2024-03-07T11:33:37;15.80;;;14.07;;
67768;SDS011;54569;52.018;5.584;2024-03-07T11:36:10;15.32;;;13.30;;
67768;SDS011;54569;52.018;5.584;2024-03-07T11:38:37;14.63;;;13.15;;
67768;SDS011;54569;52.018;5.584;2024-03-07T11:41:18;15.52;;;13.82;;
67768;SDS011;54569;52.018;5.584;2024-03-07T11:43:44;13.77;;;12.38;;
67768;SDS011;54569;52.018;5.584;2024-03-07T11:46:11;13.77;;;12.43;;
67768;SDS011;54569;52.018;5.584;2024-03-07T11:48:41;16.42;;;14.70;;
67768;SDS011;54569;52.018;5.584;2024-03-07T11:51:11;14.98;;;13.48;;
67768;SDS011;54569;52.018;5.584;2024-03-07T11:53:38;14.60;;;12.93;;
67768;SDS011;54569;52.018;5.584;2024-03-07T11:56:05;14.30;;;12.75;;
67768;SDS011;54569;52.018;5.584;2024-03-07T11:58:38;13.95;;;12.55;;
67768;SDS011;54569;52.018;5.584;2024-03-07T12:01:07;13.95;;;12.50;;
67768;SDS011;54569;52.018;5.584;2024-03-07T12:03:38;14.18;;;12.73;;
67768;SDS011;54569;52.018;5.584;2024-03-07T12:06:04;13.80;;;12.40;;
67768;SDS011;54569;52.018;5.584;2024-03-07T12:08:30;13.38;;;12.07;;
67768;SDS011;54569;52.018;5.584;2024-03-07T12:10:56;14.18;;;12.15;;
67768;SDS011;54569;52.018;5.584;2024-03-07T12:13:23;13.60;;;11.88;;
67768;SDS011;54569;52.018;5.584;2024-03-07T12:15:50;12.65;;;11.45;;
67768;SDS011;54569;52.018;5.584;2024-03-07T12:18:19;12.65;;;11.35;;
67768;SDS011;54569;52.018;5.584;2024-03-07T12:20:47;14.57;;;13.10;;
67768;SDS011;54569;52.018;5.584;2024-03-07T12:23:19;13.57;;;12.27;;
67768;SDS011;54569;52.018;5.584;2024-03-07T12:25:47;12.63;;;11.45;;
67768;SDS011;54569;52.018;5.584;2024-03-07T12:28:23;13.27;;;11.63;;
67768;SDS011;54569;52.018;5.584;2024-03-07T12:30:51;13.70;;;12.30;;
67768;SDS011;54569;52.018;5.584;2024-03-07T12:33:19;13.00;;;11.40;;
67768;SDS011;54569;52.018;5.584;2024-03-07T12:35:48;14.05;;;12.55;;
67768;SDS011;54569;52.018;5.584;2024-03-07T12:38:17;13.38;;;11.98;;
67768;SDS011;54569;52.018;5.584;2024-03-07T12:40:44;13.95;;;11.55;;
67768;SDS011;54569;52.018;5.584;2024-03-07T12:43:17;14.98;;;12.02;;
67768;SDS011;54569;52.018;5.584;2024-03-07T12:45:47;13.35;;;10.98;;
67768;SDS011;54569;52.018;5.584;2024-03-07T12:48:15;13.30;;;11.73;;
67768;SDS011;54569;52.018;5.584;2024-03-07T12:50:41;14.02;;;12.52;;
67768;SDS011;54569;52.018;5.584;2024-03-07T12:53:10;14.02;;;12.30;;
67768;SDS011;54569;52.018;5.584;2024-03-07T12:55:40;14.70;;;11.07;;
67768;SDS011;54569;52.018;5.584;2024-03-07T12:58:09;13.20;;;11.25;;
67768;SDS011;54569;52.018;5.584;2024-03-07T13:00:41;13.05;;;10.93;;
67768;SDS011;54569;52.018;5.584;2024-03-07T13:03:07;13.93;;;11.15;;
67768;SDS011;54569;52.018;5.584;2024-03-07T13:05:41;11.75;;;10.52;;
67768;SDS011;54569;52.018;5.584;2024-03-07T13:08:08;13.60;;;11.02;;
67768;SDS011;54569;52.018;5.584;2024-03-07T13:10:43;11.93;;;10.63;;
67768;SDS011;54569;52.018;5.584;2024-03-07T13:13:10;12.82;;;10.93;;
67768;SDS011;54569;52.018;5.584;2024-03-07T13:15:39;12.38;;;11.05;;
67768;SDS011;54569;52.018;5.584;2024-03-07T13:18:07;13.50;;;12.10;;
67768;SDS011;54569;52.018;5.584;2024-03-07T13:20:34;12.73;;;10.77;;
67768;SDS011;54569;52.018;5.584;2024-03-07T13:23:01;13.35;;;10.88;;
67768;SDS011;54569;52.018;5.584;2024-03-07T13:25:28;13.65;;;11.13;;
67768;SDS011;54569;52.018;5.584;2024-03-07T13:28:13;13.82;;;11.82;;
67768;SDS011;54569;52.018;5.584;2024-03-07T13:30:42;18.92;;;12.93;;
67768;SDS011;54569;52.018;5.584;2024-03-07T13:33:09;15.10;;;12.43;;
67768;SDS011;54569;52.018;5.584;2024-03-07T13:35:37;15.02;;;12.60;;
67768;SDS011;54569;52.018;5.584;2024-03-07T13:38:04;13.65;;;12.02;;
67768;SDS011;54569;52.018;5.584;2024-03-07T13:40:31;14.80;;;12.45;;
67768;SDS011;54569;52.018;5.584;2024-03-07T13:42:57;14.38;;;12.07;;
67768;SDS011;54569;52.018;5.584;2024-03-07T13:45:25;13.98;;;12.27;;
67768;SDS011;54569;52.018;5.584;2024-03-07T13:47:53;16.17;;;12.88;;
67768;SDS011;54569;52.018;5.584;2024-03-07T13:50:21;17.42;;;12.68;;
67768;SDS011;54569;52.018;5.584;2024-03-07T13:52:49;12.15;;;10.85;;
67768;SDS011;54569;52.018;5.584;2024-03-07T13:55:36;16.42;;;12.68;;
67768;SDS011;54569;52.018;5.584;2024-03-07T13:58:24;13.93;;;11.75;;
67768;SDS011;54569;52.018;5.584;2024-03-07T14:00:55;14.10;;;11.82;;
67768;SDS011;54569;52.018;5.584;2024-03-07T14:20:42;15.85;;;12.80;;
67768;SDS011;54569;52.018;5.584;2024-03-07T14:24:05;12.90;;;10.75;;
67768;SDS011;54569;52.018;5.584;2024-03-07T14:32:12;14.10;;;11.40;;
67768;SDS011;54569;52.018;5.584;2024-03-07T14:37:49;12.43;;;10.30;;
67768;SDS011;54569;52.018;5.584;2024-03-07T14:40:17;16.10;;;11.65;;
67768;SDS011;54569;52.018;5.584;2024-03-07T14:42:45;15.13;;;11.23;;
67768;SDS011;54569;52.018;5.584;2024-03-07T14:45:13;14.98;;;10.77;;
67768;SDS011;54569;52.018;5.584;2024-03-07T14:47:45;14.05;;;11.38;;
67768;SDS011;54569;52.018;5.584;2024-03-07T14:50:13;13.75;;;11.23;;
67768;SDS011;54569;52.018;5.584;2024-03-07T14:52:42;13.23;;;11.07;;
67768;SDS011;54569;52.018;5.584;2024-03-07T14:55:09;13.27;;;10.75;;
67768;SDS011;54569;52.018;5.584;2024-03-07T14:57:39;16.25;;;11.20;;
67768;SDS011;54569;52.018;5.584;2024-03-07T15:00:10;14.77;;;10.75;;
67768;SDS011;54569;52.018;5.584;2024-03-07T15:02:47;13.23;;;10.88;;